Avon, Iowa
Current Conditions -  °F | °C
As of 4:54 AM on Friday 31 Oct 2014 (Local Time) from KDSM Reporting Station
Few Clouds Few Clouds  
Wind Chill: 22°   Ceiling: Unl
Heat Index: 34°   Visibility: 10mi
Dew Point: 18°   Wind: 21mph
Humidity: 52%   Direction: 360°N
Pressure: 30.4"   Gusts: 35mph
Location:  41.4707°N, 93.4797°W
Report Text: KDSM 310954Z 36018G30KT 10SM FEW036 01/M08 A3040 RMK AO2 PK WND 01033/0916 SLP298 T00111078
Loading
Personal Weather Stations






























Interactive Weather Map New forecast layout! Learn more

10-Day Weather Forecast

Advertisements
Track Severe Weather on mobile